createdAt,value
2022-09-12T00:00:49.853Z,16.41
2022-09-12T00:03:18.155Z,16.41
2022-09-12T00:05:47.752Z,16.29
2022-09-12T00:08:15.855Z,16.29
2022-09-12T00:10:45.643Z,16.33
2022-09-12T00:13:14.565Z,16.49
2022-09-12T00:15:43.899Z,16.43
2022-09-12T00:18:16.727Z,16.31
2022-09-12T00:20:45.437Z,16.30
2022-09-12T00:23:13.729Z,16.29
2022-09-12T00:25:44.807Z,16.24
2022-09-12T00:28:15.362Z,16.17
2022-09-12T00:30:43.207Z,16.10
2022-09-12T00:33:11.581Z,15.98
2022-09-12T00:35:43.309Z,16.02
2022-09-12T00:38:11.010Z,15.94
2022-09-12T00:40:38.781Z,15.90
2022-09-12T00:43:06.581Z,16.00
2022-09-12T00:45:35.864Z,15.93
2022-09-12T00:48:05.190Z,15.89
2022-09-12T00:50:34.139Z,15.90
2022-09-12T00:53:05.578Z,15.86
2022-09-12T00:55:37.119Z,15.85
2022-09-12T00:58:10.018Z,15.82
2022-09-12T01:00:41.576Z,15.81
2022-09-12T01:03:14.523Z,15.69
2022-09-12T01:05:46.403Z,15.61
2022-09-12T01:08:14.394Z,15.64
2022-09-12T01:10:43.480Z,15.55
2022-09-12T01:13:12.067Z,15.54
2022-09-12T01:15:41.680Z,15.64
2022-09-12T01:18:19.007Z,15.71
2022-09-12T01:20:54.725Z,15.72
2022-09-12T01:24:01.885Z,15.70
2022-09-12T01:26:55.416Z,15.89
2022-09-12T01:29:40.972Z,15.93
2022-09-12T01:32:14.449Z,16.06
2022-09-12T01:34:47.767Z,16.10
2022-09-12T01:37:23.436Z,16.12
2022-09-12T01:39:59.451Z,16.08
2022-09-12T01:42:35.137Z,16.00
2022-09-12T01:45:10.585Z,15.82
2022-09-12T01:47:44.742Z,15.72
2022-09-12T01:50:18.688Z,15.77
2022-09-12T01:52:52.045Z,15.71
2022-09-12T01:55:23.749Z,15.72
2022-09-12T01:57:55.981Z,15.85
2022-09-12T02:00:23.954Z,15.75
2022-09-12T02:02:58.338Z,15.73
2022-09-12T02:05:32.077Z,15.73
2022-09-12T02:08:06.851Z,15.65
2022-09-12T02:10:39.539Z,15.54
2022-09-12T02:13:14.569Z,15.51
2022-09-12T02:15:47.980Z,15.46
2022-09-12T02:18:19.255Z,15.53
2022-09-12T02:20:49.536Z,15.55
2022-09-12T02:23:24.687Z,15.63
2022-09-12T02:25:55.657Z,15.68
2022-09-12T02:28:27.733Z,15.56
2022-09-12T02:31:02.304Z,15.49
2022-09-12T02:33:39.207Z,15.45
2022-09-12T02:36:17.860Z,15.50
2022-09-12T02:38:47.935Z,15.58
2022-09-12T02:41:19.025Z,15.55
2022-09-12T02:43:47.402Z,15.57
2022-09-12T02:46:19.017Z,15.74
2022-09-12T02:48:47.988Z,15.57
2022-09-12T02:51:18.287Z,15.70
2022-09-12T02:53:49.250Z,15.62
2022-09-12T02:56:21.446Z,15.69
2022-09-12T02:58:49.747Z,15.69
2022-09-12T03:01:31.038Z,15.70
2022-09-12T03:04:26.147Z,15.57
2022-09-12T03:07:05.110Z,15.43
2022-09-12T03:09:40.696Z,15.49
2022-09-12T03:12:22.045Z,15.47
2022-09-12T03:15:10.851Z,15.60
2022-09-12T03:17:52.613Z,15.47
2022-09-12T03:20:32.070Z,15.40
2022-09-12T03:23:04.804Z,15.38
2022-09-12T03:25:37.315Z,15.19
2022-09-12T03:28:09.153Z,15.17
2022-09-12T03:30:39.950Z,15.17
2022-09-12T03:33:07.811Z,15.12
2022-09-12T03:35:36.748Z,15.01
2022-09-12T03:38:05.052Z,14.97
2022-09-12T03:40:32.585Z,14.90
2022-09-12T03:43:00.143Z,14.97
2022-09-12T03:45:27.866Z,15.05
2022-09-12T03:47:55.495Z,15.08
2022-09-12T03:50:23.174Z,15.32
2022-09-12T03:52:52.092Z,15.21
2022-09-12T03:55:19.690Z,15.13
2022-09-12T03:57:47.324Z,15.31
2022-09-12T04:00:19.560Z,15.19
2022-09-12T04:02:47.554Z,15.21
2022-09-12T04:05:15.320Z,15.13
2022-09-12T04:07:42.981Z,15.16
2022-09-12T04:10:11.979Z,15.00
2022-09-12T04:12:39.664Z,14.90
2022-09-12T04:15:08.454Z,14.87
2022-09-12T04:17:36.204Z,14.70
2022-09-12T04:20:04.129Z,14.66
2022-09-12T04:22:32.526Z,14.71
2022-09-12T04:25:00.110Z,14.75
2022-09-12T04:27:29.428Z,14.70
2022-09-12T04:29:57.380Z,14.72
2022-09-12T04:32:25.039Z,14.75
2022-09-12T04:34:53.339Z,14.79
2022-09-12T04:37:21.225Z,14.78
2022-09-12T04:39:49.742Z,14.83
2022-09-12T04:42:17.706Z,14.85
2022-09-12T04:44:46.656Z,14.79
2022-09-12T04:47:14.233Z,14.84
2022-09-12T04:49:41.801Z,14.86
2022-09-12T04:52:09.485Z,14.86
2022-09-12T04:54:37.879Z,14.96
2022-09-12T04:57:05.620Z,14.85
2022-09-12T04:59:33.241Z,14.99
2022-09-12T05:02:02.659Z,14.91
2022-09-12T05:04:31.570Z,14.84
2022-09-12T05:06:59.981Z,14.97
2022-09-12T05:09:27.762Z,15.04
2022-09-12T05:12:04.707Z,15.03
2022-09-12T05:14:33.568Z,15.06
2022-09-12T05:17:03.289Z,14.93
2022-09-12T05:19:31.957Z,14.92
2022-09-12T05:22:00.157Z,14.79
2022-09-12T05:24:28.119Z,14.89
2022-09-12T05:26:55.741Z,14.92
2022-09-12T05:29:25.103Z,14.86
2022-09-12T05:31:53.173Z,14.82
2022-09-12T05:34:22.327Z,14.72
2022-09-12T05:36:49.974Z,14.72
2022-09-12T05:39:18.526Z,14.69
2022-09-12T05:41:46.172Z,14.75
2022-09-12T05:44:15.119Z,14.76
2022-09-12T05:46:45.252Z,14.75
2022-09-12T05:49:14.745Z,14.80
2022-09-12T05:51:45.449Z,14.85
2022-09-12T05:54:15.170Z,14.83
2022-09-12T05:56:44.695Z,14.84
2022-09-12T05:59:14.091Z,14.96
2022-09-12T06:01:42.623Z,15.05
2022-09-12T06:04:10.537Z,14.90
2022-09-12T06:06:42.645Z,14.80
2022-09-12T06:09:11.985Z,15.19
2022-09-12T06:11:41.766Z,15.16
2022-09-12T06:14:16.846Z,15.05
2022-09-12T06:16:44.743Z,14.99
2022-09-12T06:19:16.298Z,14.91
2022-09-12T06:21:44.544Z,14.86
2022-09-12T06:24:14.061Z,14.89
2022-09-12T06:26:41.687Z,14.82
2022-09-12T06:29:11.495Z,14.81
2022-09-12T06:31:43.638Z,14.80
2022-09-12T06:34:13.298Z,14.79
2022-09-12T06:36:43.088Z,14.99
2022-09-12T06:39:14.621Z,15.09
2022-09-12T06:41:44.195Z,15.19
2022-09-12T06:44:14.331Z,15.15
2022-09-12T06:46:41.953Z,15.09
2022-09-12T06:49:09.964Z,15.07
2022-09-12T06:51:37.690Z,15.04
2022-09-12T06:54:06.322Z,15.06
2022-09-12T06:56:35.941Z,15.14
2022-09-12T06:59:03.557Z,15.17
2022-09-12T07:01:32.768Z,15.18
2022-09-12T07:04:02.133Z,15.21
2022-09-12T07:06:32.485Z,15.22
2022-09-12T07:09:00.901Z,15.25
2022-09-12T07:11:31.685Z,15.32
2022-09-12T07:14:02.110Z,15.33
2022-09-12T07:16:30.347Z,15.40
2022-09-12T07:19:01.362Z,15.40
2022-09-12T07:21:29.877Z,15.42
2022-09-12T07:23:58.137Z,15.43
2022-09-12T07:26:29.990Z,15.47
2022-09-12T07:29:18.606Z,15.49
2022-09-12T07:31:49.107Z,15.52
2022-09-12T07:34:17.603Z,15.55
2022-09-12T07:36:45.228Z,15.63
2022-09-12T07:39:16.230Z,15.65
2022-09-12T07:41:43.836Z,15.67
2022-09-12T07:44:11.461Z,15.74
2022-09-12T07:46:40.702Z,15.76
2022-09-12T07:49:10.727Z,16.47
2022-09-12T07:51:38.415Z,16.68
2022-09-12T07:54:09.192Z,16.48
2022-09-12T07:56:39.524Z,16.34
2022-09-12T07:59:09.581Z,16.29
2022-09-12T08:01:37.306Z,16.23
2022-09-12T08:04:06.050Z,16.16
2022-09-12T08:06:36.907Z,16.15
2022-09-12T08:09:06.036Z,16.18
2022-09-12T08:11:33.782Z,16.31
2022-09-12T08:14:03.002Z,16.30
2022-09-12T08:16:32.172Z,16.37
2022-09-12T08:19:01.968Z,16.35
2022-09-12T08:21:31.677Z,16.36
2022-09-12T08:24:02.024Z,16.34
2022-09-12T08:26:30.150Z,16.35
2022-09-12T08:28:58.212Z,16.46
2022-09-12T08:31:27.752Z,16.90
2022-09-12T08:33:56.991Z,16.88
2022-09-12T08:36:26.441Z,17.15
2022-09-12T08:38:59.621Z,16.99
2022-09-12T08:41:31.800Z,16.93
2022-09-12T08:44:34.931Z,17.55
2022-09-12T08:47:21.126Z,17.36
2022-09-12T08:50:03.931Z,17.19
2022-09-12T08:52:38.406Z,17.12
2022-09-12T08:55:12.901Z,17.03
2022-09-12T08:57:41.948Z,17.04
2022-09-12T09:00:15.103Z,17.29
2022-09-12T09:02:59.026Z,17.13
2022-09-12T09:05:38.731Z,17.23
2022-09-12T09:08:41.840Z,17.87
2022-09-12T09:11:24.345Z,17.73
2022-09-12T09:14:22.708Z,17.50
2022-09-12T09:16:53.496Z,17.35
2022-09-12T09:19:26.327Z,17.31
2022-09-12T09:22:00.126Z,17.29
2022-09-12T09:24:34.368Z,17.68
2022-09-12T09:27:23.474Z,17.67
2022-09-12T09:29:57.002Z,17.82
2022-09-12T09:32:28.886Z,17.85
2022-09-12T09:34:56.691Z,17.76
2022-09-12T09:37:33.320Z,17.63
2022-09-12T09:40:08.274Z,17.61
2022-09-12T09:42:43.695Z,17.87
2022-09-12T09:45:17.955Z,17.72
2022-09-12T09:47:46.914Z,17.73
2022-09-12T09:50:17.563Z,17.68
2022-09-12T09:52:45.384Z,17.65
2022-09-12T09:55:18.795Z,17.75
2022-09-12T09:57:47.681Z,18.00
2022-09-12T10:00:26.999Z,18.30
2022-09-12T10:03:12.602Z,18.78
2022-09-12T10:05:48.005Z,18.86
2022-09-12T10:08:22.272Z,18.68
2022-09-12T10:11:02.835Z,18.56
2022-09-12T10:13:37.586Z,18.36
2022-09-12T10:16:08.628Z,18.29
2022-09-12T10:18:39.973Z,18.14
2022-09-12T10:21:20.382Z,18.19
2022-09-12T10:23:52.456Z,18.14
2022-09-12T10:26:21.639Z,18.22
2022-09-12T10:28:53.462Z,18.25
2022-09-12T10:31:29.003Z,18.55
2022-09-12T10:33:59.610Z,18.88
2022-09-12T10:36:36.711Z,18.55
2022-09-12T10:39:05.531Z,18.68
2022-09-12T10:41:38.916Z,18.65
2022-09-12T10:44:09.799Z,18.70
2022-09-12T10:46:39.194Z,18.62
2022-09-12T10:49:24.177Z,19.06
2022-09-12T10:51:53.952Z,19.03
2022-09-12T10:54:24.629Z,18.79
2022-09-12T10:57:07.608Z,18.62
2022-09-12T10:59:52.658Z,18.53
2022-09-12T11:02:29.340Z,18.47
2022-09-12T11:05:08.980Z,18.56
2022-09-12T11:07:42.937Z,18.77
2022-09-12T11:10:44.460Z,18.65
2022-09-12T11:13:24.277Z,18.56
2022-09-12T11:16:10.555Z,18.53
2022-09-12T11:19:06.384Z,18.49
2022-09-12T11:21:48.850Z,18.56
2022-09-12T11:24:35.145Z,19.05
2022-09-12T11:27:15.009Z,18.99
2022-09-12T11:29:49.959Z,18.85
2022-09-12T11:32:59.956Z,18.86
2022-09-12T11:35:30.335Z,18.78
2022-09-12T11:38:12.695Z,18.71
2022-09-12T11:40:45.705Z,18.74
2022-09-12T11:43:24.862Z,18.86
2022-09-12T11:45:53.541Z,18.79
2022-09-12T11:48:36.017Z,18.73
2022-09-12T11:51:09.009Z,18.74
2022-09-12T11:53:42.570Z,18.81
2022-09-12T11:56:16.947Z,18.78
2022-09-12T11:58:47.299Z,18.76
2022-09-12T12:01:19.063Z,18.88
2022-09-12T12:03:48.894Z,18.87
2022-09-12T12:06:20.211Z,18.88
2022-09-12T12:08:50.447Z,18.97
2022-09-12T12:11:30.098Z,19.05
2022-09-12T12:14:01.359Z,19.09
2022-09-12T12:16:30.846Z,19.11
2022-09-12T12:19:00.195Z,19.06
2022-09-12T12:21:37.694Z,19.04
2022-09-12T12:24:23.006Z,19.03
2022-09-12T12:27:00.136Z,19.13
2022-09-12T12:29:44.121Z,19.12
2022-09-12T12:32:33.047Z,19.28
2022-09-12T12:35:37.692Z,19.26
2022-09-12T12:38:27.180Z,19.31
2022-09-12T12:40:54.878Z,19.24
2022-09-12T12:43:32.956Z,19.24
2022-09-12T12:46:12.427Z,19.50
2022-09-12T12:48:51.723Z,19.80
2022-09-12T12:51:38.823Z,19.76
2022-09-12T12:54:29.387Z,19.95
2022-09-12T12:57:18.491Z,20.20
2022-09-12T12:59:49.973Z,20.04
2022-09-12T13:02:26.753Z,19.95
2022-09-12T13:04:55.582Z,19.82
2022-09-12T13:07:28.878Z,19.98
2022-09-12T13:09:59.417Z,19.79
2022-09-12T13:12:30.614Z,19.81
2022-09-12T13:14:59.441Z,19.82
2022-09-12T13:17:31.508Z,19.99
2022-09-12T13:20:28.754Z,19.91
2022-09-12T13:22:57.413Z,20.08
2022-09-12T13:25:30.176Z,20.01
2022-09-12T13:28:07.187Z,19.97
2022-09-12T13:30:37.342Z,20.00
2022-09-12T13:33:14.310Z,19.99
2022-09-12T13:35:54.082Z,20.01
2022-09-12T13:38:32.182Z,20.04
2022-09-12T13:41:19.871Z,20.12
2022-09-12T13:43:49.475Z,20.16
2022-09-12T13:46:23.682Z,20.23
2022-09-12T13:48:51.330Z,20.32
2022-09-12T13:51:25.169Z,20.40
2022-09-12T13:53:56.226Z,20.56
2022-09-12T13:56:25.268Z,20.54
2022-09-12T13:58:56.341Z,20.59
2022-09-12T14:01:25.516Z,20.78
2022-09-12T14:04:11.990Z,20.84
2022-09-12T14:06:49.999Z,21.27
2022-09-12T14:09:25.442Z,21.45
2022-09-12T14:11:55.806Z,21.67
2022-09-12T14:14:29.439Z,21.91
2022-09-12T14:16:57.049Z,22.26
2022-09-12T14:19:27.318Z,22.46
2022-09-12T14:21:55.963Z,22.67
2022-09-12T14:24:24.364Z,22.88
2022-09-12T14:26:57.672Z,23.32
2022-09-12T14:29:26.203Z,23.46
2022-09-12T14:32:05.731Z,23.53
2022-09-12T14:34:33.318Z,23.52
2022-09-12T14:37:01.083Z,23.43
2022-09-12T14:39:33.952Z,23.30
2022-09-12T14:42:07.199Z,23.26
2022-09-12T14:44:37.243Z,23.45
2022-09-12T14:47:16.089Z,23.41
2022-09-12T14:49:44.665Z,23.26
2022-09-12T14:52:26.541Z,23.18
2022-09-12T14:54:58.837Z,23.15
2022-09-12T14:57:38.801Z,23.00
2022-09-12T15:00:17.801Z,22.87
2022-09-12T15:02:45.660Z,22.78
2022-09-12T15:05:20.185Z,22.70
2022-09-12T15:07:54.821Z,22.67
2022-09-12T15:10:25.370Z,22.67
2022-09-12T15:13:14.158Z,22.61
2022-09-12T15:15:43.361Z,22.58
2022-09-12T15:18:11.343Z,22.53
2022-09-12T15:20:40.797Z,22.48
2022-09-12T15:23:19.309Z,22.47
2022-09-12T15:25:47.164Z,22.50
2022-09-12T15:28:20.592Z,22.52
2022-09-12T15:30:51.230Z,22.69
2022-09-12T15:33:20.920Z,22.69
2022-09-12T15:35:48.579Z,22.65
2022-09-12T15:38:16.521Z,22.62
2022-09-12T15:40:44.187Z,22.58
2022-09-12T15:43:13.884Z,22.58
2022-09-12T15:45:45.205Z,22.66
2022-09-12T15:48:13.789Z,22.76
2022-09-12T15:50:42.037Z,22.74
2022-09-12T15:53:14.105Z,22.72
2022-09-12T15:55:41.820Z,22.69
2022-09-12T15:58:09.723Z,22.66
2022-09-12T16:00:37.508Z,22.65
2022-09-12T16:03:06.690Z,22.62
2022-09-12T16:05:34.451Z,22.61
2022-09-12T16:08:03.542Z,22.62
2022-09-12T16:10:31.604Z,22.60
2022-09-12T16:12:59.717Z,22.60
2022-09-12T16:15:27.481Z,22.56
2022-09-12T16:17:55.098Z,22.52
2022-09-12T16:20:24.334Z,22.50
2022-09-12T16:22:51.982Z,22.45
2022-09-12T16:25:19.868Z,22.47
2022-09-12T16:27:47.493Z,22.47
2022-09-12T16:30:15.326Z,22.34
2022-09-12T16:32:43.046Z,22.23
2022-09-12T16:35:14.062Z,22.14
2022-09-12T16:37:43.374Z,22.06
2022-09-12T16:40:11.918Z,22.02
2022-09-12T16:42:43.529Z,22.05
2022-09-12T16:45:12.083Z,21.97
2022-09-12T16:47:40.006Z,21.93
2022-09-12T16:50:11.381Z,21.82
2022-09-12T16:52:39.298Z,21.78
2022-09-12T16:55:09.972Z,21.71
2022-09-12T16:57:37.568Z,21.62
2022-09-12T17:00:06.733Z,21.58
2022-09-12T17:02:34.377Z,21.61
2022-09-12T17:05:01.993Z,21.53
2022-09-12T17:07:29.626Z,21.46
2022-09-12T17:09:57.232Z,21.48
2022-09-12T17:12:26.310Z,21.40
2022-09-12T17:14:54.380Z,21.34
2022-09-12T17:17:21.949Z,21.28
2022-09-12T17:19:49.811Z,21.25
2022-09-12T17:22:17.424Z,21.19
2022-09-12T17:24:45.392Z,21.16
2022-09-12T17:27:13.103Z,21.12
2022-09-12T17:29:42.031Z,21.08
2022-09-12T17:32:09.589Z,21.07
2022-09-12T17:34:37.281Z,21.07
2022-09-12T17:37:05.282Z,21.01
2022-09-12T17:39:32.977Z,20.96
2022-09-12T17:42:00.626Z,20.93
2022-09-12T17:44:30.117Z,20.97
2022-09-12T17:46:59.033Z,20.93
2022-09-12T17:49:26.838Z,21.01
2022-09-12T17:51:56.126Z,20.90
2022-09-12T17:54:24.508Z,20.84
2022-09-12T17:56:52.433Z,20.75
2022-09-12T17:59:22.907Z,20.71
2022-09-12T18:02:08.524Z,20.68
2022-09-12T18:04:37.547Z,20.61
2022-09-12T18:07:05.926Z,20.54
2022-09-12T18:09:33.683Z,20.48
2022-09-12T18:12:01.287Z,20.45
2022-09-12T18:14:29.066Z,20.41
2022-09-12T18:16:57.613Z,20.35
2022-09-12T18:19:26.556Z,20.33
2022-09-12T18:21:56.001Z,20.32
2022-09-12T18:24:24.111Z,20.33
2022-09-12T18:26:51.903Z,20.36
2022-09-12T18:29:20.124Z,20.32
2022-09-12T18:31:48.012Z,20.29
2022-09-12T18:34:16.143Z,20.22
2022-09-12T18:36:45.535Z,20.23
2022-09-12T18:39:15.303Z,20.21
2022-09-12T18:41:42.939Z,20.17
2022-09-12T18:44:12.461Z,20.21
2022-09-12T18:46:40.237Z,20.24
2022-09-12T18:49:19.377Z,20.28
2022-09-12T18:52:13.631Z,20.36
2022-09-12T18:54:42.767Z,20.27
2022-09-12T18:57:12.168Z,20.21
2022-09-12T19:00:09.345Z,20.13
2022-09-12T19:02:48.640Z,20.08
2022-09-12T19:05:21.446Z,19.96
2022-09-12T19:07:49.554Z,19.87
2022-09-12T19:10:19.646Z,19.79
2022-09-12T19:12:49.247Z,19.76
2022-09-12T19:15:16.958Z,19.69
2022-09-12T19:17:48.298Z,19.66
2022-09-12T19:20:15.915Z,19.61
2022-09-12T19:22:43.840Z,19.56
2022-09-12T19:25:11.467Z,19.54
2022-09-12T19:27:40.405Z,19.52
2022-09-12T19:30:08.791Z,19.54
2022-09-12T19:32:36.793Z,19.64
2022-09-12T19:35:05.001Z,19.58
2022-09-12T19:37:32.564Z,19.50
2022-09-12T19:40:00.282Z,19.48
2022-09-12T19:42:27.888Z,19.44
2022-09-12T19:44:56.816Z,19.43
2022-09-12T19:47:25.179Z,19.40
2022-09-12T19:49:52.810Z,19.35
2022-09-12T19:52:20.565Z,19.34
2022-09-12T19:54:48.347Z,19.40
2022-09-12T19:57:15.880Z,19.35
2022-09-12T19:59:45.090Z,19.31
2022-09-12T20:02:14.126Z,19.27
2022-09-12T20:04:42.083Z,19.20
2022-09-12T20:07:09.688Z,19.16
2022-09-12T20:09:37.756Z,19.18
2022-09-12T20:12:06.000Z,19.15
2022-09-12T20:14:33.572Z,19.08
2022-09-12T20:17:01.197Z,19.06
2022-09-12T20:19:31.364Z,19.09
2022-09-12T20:21:59.667Z,19.06
2022-09-12T20:24:27.378Z,19.09
2022-09-12T20:26:57.502Z,19.22
2022-09-12T20:29:28.154Z,19.21
2022-09-12T20:31:55.732Z,19.14
2022-09-12T20:34:23.714Z,19.07
2022-09-12T20:36:52.993Z,19.05
2022-09-12T20:39:22.625Z,19.04
2022-09-12T20:41:50.638Z,18.98
2022-09-12T20:44:18.395Z,18.91
2022-09-12T20:46:46.107Z,18.85
2022-09-12T20:49:13.760Z,18.91
2022-09-12T20:51:41.351Z,18.88
2022-09-12T20:54:11.730Z,18.88
2022-09-12T20:56:39.644Z,18.88
2022-09-12T20:59:07.443Z,19.20
2022-09-12T21:01:35.302Z,19.41
2022-09-12T21:04:03.295Z,19.42
2022-09-12T21:06:31.621Z,19.32
2022-09-12T21:08:59.764Z,19.07
2022-09-12T21:11:29.427Z,18.99
2022-09-12T21:13:57.902Z,18.85
2022-09-12T21:16:25.554Z,18.76
2022-09-12T21:18:57.887Z,18.81
2022-09-12T21:21:26.444Z,18.74
2022-09-12T21:23:55.271Z,18.70
2022-09-12T21:26:22.871Z,18.79
2022-09-12T21:28:51.797Z,18.94
2022-09-12T21:31:19.395Z,18.93
2022-09-12T21:33:47.051Z,18.97
2022-09-12T21:36:14.678Z,18.93
2022-09-12T21:38:42.226Z,18.85
2022-09-12T21:41:11.803Z,18.88
2022-09-12T21:43:40.169Z,19.15
2022-09-12T21:46:09.825Z,19.23
2022-09-12T21:48:38.168Z,19.20
2022-09-12T21:51:06.573Z,19.20
2022-09-12T21:53:34.209Z,19.16
2022-09-12T21:56:04.676Z,19.16
2022-09-12T21:58:32.365Z,19.14
2022-09-12T22:01:00.881Z,19.28
2022-09-12T22:03:31.182Z,19.25
2022-09-12T22:06:00.158Z,19.30
2022-09-12T22:08:28.097Z,19.33
2022-09-12T22:10:59.413Z,19.25
2022-09-12T22:13:27.378Z,19.24
2022-09-12T22:15:55.267Z,19.30
2022-09-12T22:18:22.874Z,19.14
2022-09-12T22:20:59.716Z,19.20
2022-09-12T22:23:45.120Z,19.15
2022-09-12T22:26:14.068Z,19.04
2022-09-12T22:28:41.607Z,18.94
2022-09-12T22:31:11.379Z,18.94
2022-09-12T22:33:39.104Z,18.75
2022-09-12T22:36:08.809Z,18.85
2022-09-12T22:38:37.135Z,18.89
2022-09-12T22:41:05.890Z,18.76
2022-09-12T22:43:34.035Z,18.64
2022-09-12T22:46:01.841Z,18.42
2022-09-12T22:48:29.515Z,18.42
2022-09-12T22:50:57.123Z,18.34
2022-09-12T22:53:26.208Z,18.40
2022-09-12T22:55:53.869Z,18.44
2022-09-12T22:58:21.693Z,18.39
2022-09-12T23:00:50.439Z,18.50
2022-09-12T23:03:18.375Z,18.61
2022-09-12T23:05:47.115Z,18.66
2022-09-12T23:08:14.789Z,18.74
2022-09-12T23:10:43.982Z,18.81
2022-09-12T23:13:12.306Z,18.56
2022-09-12T23:15:40.122Z,18.47
2022-09-12T23:18:08.415Z,18.40
2022-09-12T23:20:36.037Z,18.53
2022-09-12T23:23:03.947Z,18.41
2022-09-12T23:25:31.535Z,18.48
2022-09-12T23:28:00.467Z,18.61
2022-09-12T23:30:28.083Z,18.44
2022-09-12T23:32:56.782Z,18.41
2022-09-12T23:35:24.423Z,18.36
2022-09-12T23:37:51.998Z,18.35
2022-09-12T23:40:19.665Z,18.20
2022-09-12T23:42:47.282Z,18.20
2022-09-12T23:45:16.409Z,18.00
2022-09-12T23:47:43.956Z,17.93
2022-09-12T23:50:11.531Z,17.78
2022-09-12T23:52:39.121Z,17.90
2022-09-12T23:55:07.326Z,18.06
2022-09-12T23:57:35.114Z,18.12
